sensor_id;sensor_type;location;lat;lon;timestamp;P1;durP1;ratioP1;P2;durP2;ratioP2
70899;SDS011;67902;52.154;5.430;2023-10-13T00:01:57;17.92;;;7.53;;
70899;SDS011;67902;52.154;5.430;2023-10-13T00:04:25;19.05;;;7.78;;
70899;SDS011;67902;52.154;5.430;2023-10-13T00:06:53;19.30;;;8.20;;
70899;SDS011;67902;52.154;5.430;2023-10-13T00:09:23;23.40;;;8.32;;
70899;SDS011;67902;52.154;5.430;2023-10-13T00:11:59;20.25;;;7.95;;
70899;SDS011;67902;52.154;5.430;2023-10-13T00:14:26;18.92;;;8.52;;
70899;SDS011;67902;52.154;5.430;2023-10-13T00:17:04;20.65;;;8.15;;
70899;SDS011;67902;52.154;5.430;2023-10-13T00:19:32;21.85;;;8.43;;
70899;SDS011;67902;52.154;5.430;2023-10-13T00:22:23;20.60;;;8.00;;
70899;SDS011;67902;52.154;5.430;2023-10-13T00:24:51;18.58;;;7.53;;
70899;SDS011;67902;52.154;5.430;2023-10-13T00:27:19;20.40;;;8.27;;
70899;SDS011;67902;52.154;5.430;2023-10-13T00:30:07;17.63;;;7.80;;
70899;SDS011;67902;52.154;5.430;2023-10-13T00:32:49;23.55;;;7.90;;
70899;SDS011;67902;52.154;5.430;2023-10-13T00:35:25;18.83;;;7.55;;
70899;SDS011;67902;52.154;5.430;2023-10-13T00:37:56;22.48;;;8.63;;
70899;SDS011;67902;52.154;5.430;2023-10-13T00:40:31;20.08;;;8.75;;
70899;SDS011;67902;52.154;5.430;2023-10-13T00:42:58;22.30;;;7.45;;
70899;SDS011;67902;52.154;5.430;2023-10-13T00:48:14;14.07;;;5.22;;
70899;SDS011;67902;52.154;5.430;2023-10-13T00:50:42;21.13;;;7.30;;
70899;SDS011;67902;52.154;5.430;2023-10-13T00:53:11;17.58;;;7.00;;
70899;SDS011;67902;52.154;5.430;2023-10-13T00:55:38;16.23;;;6.72;;
70899;SDS011;67902;52.154;5.430;2023-10-13T00:58:08;16.52;;;7.07;;
70899;SDS011;67902;52.154;5.430;2023-10-13T01:00:38;17.85;;;8.30;;
70899;SDS011;67902;52.154;5.430;2023-10-13T01:03:13;17.25;;;7.43;;
70899;SDS011;67902;52.154;5.430;2023-10-13T01:05:40;21.77;;;7.78;;
70899;SDS011;67902;52.154;5.430;2023-10-13T01:08:07;23.42;;;8.38;;
70899;SDS011;67902;52.154;5.430;2023-10-13T01:10:37;17.17;;;7.32;;
70899;SDS011;67902;52.154;5.430;2023-10-13T01:13:07;19.02;;;7.65;;
70899;SDS011;67902;52.154;5.430;2023-10-13T01:15:34;17.13;;;7.25;;
70899;SDS011;67902;52.154;5.430;2023-10-13T01:18:10;15.10;;;7.50;;
70899;SDS011;67902;52.154;5.430;2023-10-13T01:20:38;21.30;;;8.00;;
70899;SDS011;67902;52.154;5.430;2023-10-13T01:23:11;18.27;;;7.65;;
70899;SDS011;67902;52.154;5.430;2023-10-13T01:28:12;21.58;;;9.00;;
70899;SDS011;67902;52.154;5.430;2023-10-13T01:30:42;20.15;;;8.45;;
70899;SDS011;67902;52.154;5.430;2023-10-13T01:33:10;18.48;;;8.68;;
70899;SDS011;67902;52.154;5.430;2023-10-13T01:35:37;19.38;;;8.02;;
70899;SDS011;67902;52.154;5.430;2023-10-13T01:38:13;18.65;;;9.25;;
70899;SDS011;67902;52.154;5.430;2023-10-13T01:40:40;17.63;;;7.97;;
70899;SDS011;67902;52.154;5.430;2023-10-13T01:43:09;17.63;;;8.18;;
70899;SDS011;67902;52.154;5.430;2023-10-13T01:45:37;17.67;;;8.88;;
70899;SDS011;67902;52.154;5.430;2023-10-13T01:48:16;17.65;;;8.68;;
70899;SDS011;67902;52.154;5.430;2023-10-13T01:50:45;20.13;;;9.23;;
70899;SDS011;67902;52.154;5.430;2023-10-13T01:53:21;20.98;;;8.85;;
70899;SDS011;67902;52.154;5.430;2023-10-13T01:58:16;20.20;;;8.50;;
70899;SDS011;67902;52.154;5.430;2023-10-13T02:00:44;18.33;;;8.25;;
70899;SDS011;67902;52.154;5.430;2023-10-13T02:03:13;19.63;;;8.82;;
70899;SDS011;67902;52.154;5.430;2023-10-13T02:05:45;18.00;;;8.57;;
70899;SDS011;67902;52.154;5.430;2023-10-13T02:08:14;17.70;;;8.50;;
70899;SDS011;67902;52.154;5.430;2023-10-13T02:10:53;18.20;;;8.75;;
70899;SDS011;67902;52.154;5.430;2023-10-13T02:13:23;20.85;;;8.40;;
70899;SDS011;67902;52.154;5.430;2023-10-13T02:15:54;19.65;;;7.97;;
70899;SDS011;67902;52.154;5.430;2023-10-13T02:18:23;15.68;;;7.70;;
70899;SDS011;67902;52.154;5.430;2023-10-13T02:20:54;18.15;;;7.95;;
70899;SDS011;67902;52.154;5.430;2023-10-13T02:25:48;18.05;;;6.97;;
70899;SDS011;67902;52.154;5.430;2023-10-13T02:28:18;17.08;;;7.60;;
70899;SDS011;67902;52.154;5.430;2023-10-13T02:30:48;19.75;;;7.45;;
70899;SDS011;67902;52.154;5.430;2023-10-13T02:33:19;17.70;;;7.55;;
70899;SDS011;67902;52.154;5.430;2023-10-13T02:35:48;15.48;;;7.03;;
70899;SDS011;67902;52.154;5.430;2023-10-13T02:38:21;15.85;;;7.05;;
70899;SDS011;67902;52.154;5.430;2023-10-13T02:41:15;19.20;;;7.30;;
70899;SDS011;67902;52.154;5.430;2023-10-13T02:43:54;17.27;;;7.10;;
70899;SDS011;67902;52.154;5.430;2023-10-13T02:46:22;16.30;;;6.72;;
70899;SDS011;67902;52.154;5.430;2023-10-13T02:48:49;19.17;;;7.22;;
70899;SDS011;67902;52.154;5.430;2023-10-13T02:51:24;18.55;;;6.93;;
70899;SDS011;67902;52.154;5.430;2023-10-13T02:54:17;17.23;;;6.75;;
70899;SDS011;67902;52.154;5.430;2023-10-13T02:56:46;18.35;;;7.30;;
70899;SDS011;67902;52.154;5.430;2023-10-13T02:59:30;12.52;;;6.18;;
70899;SDS011;67902;52.154;5.430;2023-10-13T03:02:07;14.48;;;6.25;;
70899;SDS011;67902;52.154;5.430;2023-10-13T03:04:45;19.00;;;7.25;;
70899;SDS011;67902;52.154;5.430;2023-10-13T03:07:15;17.48;;;7.18;;
70899;SDS011;67902;52.154;5.430;2023-10-13T03:09:45;19.83;;;7.28;;
70899;SDS011;67902;52.154;5.430;2023-10-13T03:12:18;24.65;;;7.15;;
70899;SDS011;67902;52.154;5.430;2023-10-13T03:14:46;16.25;;;7.22;;
70899;SDS011;67902;52.154;5.430;2023-10-13T03:17:14;14.60;;;6.82;;
70899;SDS011;67902;52.154;5.430;2023-10-13T03:19:44;16.20;;;7.07;;
70899;SDS011;67902;52.154;5.430;2023-10-13T03:22:16;20.50;;;6.97;;
70899;SDS011;67902;52.154;5.430;2023-10-13T03:24:46;15.93;;;7.15;;
70899;SDS011;67902;52.154;5.430;2023-10-13T03:27:13;21.48;;;7.38;;
70899;SDS011;67902;52.154;5.430;2023-10-13T03:29:45;14.70;;;7.13;;
70899;SDS011;67902;52.154;5.430;2023-10-13T03:32:20;19.05;;;7.03;;
70899;SDS011;67902;52.154;5.430;2023-10-13T03:34:47;15.07;;;6.88;;
70899;SDS011;67902;52.154;5.430;2023-10-13T03:37:25;16.00;;;6.50;;
70899;SDS011;67902;52.154;5.430;2023-10-13T03:40:05;18.65;;;6.43;;
70899;SDS011;67902;52.154;5.430;2023-10-13T03:48:20;19.98;;;6.85;;
70899;SDS011;67902;52.154;5.430;2023-10-13T03:53:37;15.85;;;6.50;;
70899;SDS011;67902;52.154;5.430;2023-10-13T03:56:20;13.40;;;5.75;;
70899;SDS011;67902;52.154;5.430;2023-10-13T03:58:59;14.68;;;5.40;;
70899;SDS011;67902;52.154;5.430;2023-10-13T04:01:31;14.48;;;6.00;;
70899;SDS011;67902;52.154;5.430;2023-10-13T04:03:58;12.77;;;6.47;;
70899;SDS011;67902;52.154;5.430;2023-10-13T04:06:36;12.57;;;5.22;;
70899;SDS011;67902;52.154;5.430;2023-10-13T04:09:15;14.45;;;6.57;;
70899;SDS011;67902;52.154;5.430;2023-10-13T04:11:58;15.15;;;5.90;;
70899;SDS011;67902;52.154;5.430;2023-10-13T04:14:29;11.32;;;5.18;;
70899;SDS011;67902;52.154;5.430;2023-10-13T04:17:15;12.02;;;5.45;;
70899;SDS011;67902;52.154;5.430;2023-10-13T04:19:42;13.13;;;5.18;;
70899;SDS011;67902;52.154;5.430;2023-10-13T04:22:28;15.50;;;5.00;;
70899;SDS011;67902;52.154;5.430;2023-10-13T04:28:02;12.38;;;5.72;;
70899;SDS011;67902;52.154;5.430;2023-10-13T04:30:43;13.82;;;5.20;;
70899;SDS011;67902;52.154;5.430;2023-10-13T04:33:28;12.90;;;5.75;;
70899;SDS011;67902;52.154;5.430;2023-10-13T04:36:12;16.60;;;6.43;;
70899;SDS011;67902;52.154;5.430;2023-10-13T04:38:43;16.05;;;6.03;;
70899;SDS011;67902;52.154;5.430;2023-10-13T04:41:29;14.85;;;5.50;;
70899;SDS011;67902;52.154;5.430;2023-10-13T04:44:13;19.50;;;5.40;;
70899;SDS011;67902;52.154;5.430;2023-10-13T04:46:59;16.40;;;5.32;;
70899;SDS011;67902;52.154;5.430;2023-10-13T04:49:30;16.15;;;5.45;;
70899;SDS011;67902;52.154;5.430;2023-10-13T04:52:01;12.50;;;5.45;;
70899;SDS011;67902;52.154;5.430;2023-10-13T04:57:18;13.15;;;4.60;;
70899;SDS011;67902;52.154;5.430;2023-10-13T05:00:04;11.95;;;4.88;;
70899;SDS011;67902;52.154;5.430;2023-10-13T05:05:06;11.25;;;4.32;;
70899;SDS011;67902;52.154;5.430;2023-10-13T05:07:40;10.63;;;4.70;;
70899;SDS011;67902;52.154;5.430;2023-10-13T05:10:27;11.98;;;4.13;;
70899;SDS011;67902;52.154;5.430;2023-10-13T05:13:13;10.02;;;3.75;;
70899;SDS011;67902;52.154;5.430;2023-10-13T05:15:58;8.05;;;3.90;;
70899;SDS011;67902;52.154;5.430;2023-10-13T05:18:44;9.20;;;3.90;;
70899;SDS011;67902;52.154;5.430;2023-10-13T05:21:29;12.65;;;4.05;;
70899;SDS011;67902;52.154;5.430;2023-10-13T05:24:14;12.48;;;4.13;;
70899;SDS011;67902;52.154;5.430;2023-10-13T05:26:59;14.05;;;4.47;;
70899;SDS011;67902;52.154;5.430;2023-10-13T05:29:45;13.10;;;4.75;;
70899;SDS011;67902;52.154;5.430;2023-10-13T05:32:32;13.30;;;5.32;;
70899;SDS011;67902;52.154;5.430;2023-10-13T05:35:22;13.57;;;5.38;;
70899;SDS011;67902;52.154;5.430;2023-10-13T05:38:07;12.82;;;5.72;;
70899;SDS011;67902;52.154;5.430;2023-10-13T05:40:59;12.23;;;5.13;;
70899;SDS011;67902;52.154;5.430;2023-10-13T05:43:49;13.95;;;5.57;;
70899;SDS011;67902;52.154;5.430;2023-10-13T05:46:35;12.65;;;4.50;;
70899;SDS011;67902;52.154;5.430;2023-10-13T05:49:02;13.00;;;4.80;;
70899;SDS011;67902;52.154;5.430;2023-10-13T05:51:32;13.40;;;4.50;;
70899;SDS011;67902;52.154;5.430;2023-10-13T05:53:59;13.50;;;5.15;;
70899;SDS011;67902;52.154;5.430;2023-10-13T05:56:45;11.35;;;4.55;;
70899;SDS011;67902;52.154;5.430;2023-10-13T05:59:32;12.93;;;4.68;;
70899;SDS011;67902;52.154;5.430;2023-10-13T06:02:21;13.07;;;4.03;;
70899;SDS011;67902;52.154;5.430;2023-10-13T06:05:08;16.33;;;4.13;;
70899;SDS011;67902;52.154;5.430;2023-10-13T06:07:54;12.98;;;3.63;;
70899;SDS011;67902;52.154;5.430;2023-10-13T06:10:40;14.60;;;4.38;;
70899;SDS011;67902;52.154;5.430;2023-10-13T06:13:26;13.25;;;4.18;;
70899;SDS011;67902;52.154;5.430;2023-10-13T06:16:13;18.80;;;5.05;;
70899;SDS011;67902;52.154;5.430;2023-10-13T06:18:59;10.60;;;3.58;;
70899;SDS011;67902;52.154;5.430;2023-10-13T06:21:45;17.20;;;4.70;;
70899;SDS011;67902;52.154;5.430;2023-10-13T06:24:30;12.45;;;4.10;;
70899;SDS011;67902;52.154;5.430;2023-10-13T06:27:15;13.93;;;4.20;;
70899;SDS011;67902;52.154;5.430;2023-10-13T06:30:01;11.52;;;4.25;;
70899;SDS011;67902;52.154;5.430;2023-10-13T06:32:30;14.80;;;4.55;;
70899;SDS011;67902;52.154;5.430;2023-10-13T06:34:58;14.35;;;4.75;;
70899;SDS011;67902;52.154;5.430;2023-10-13T06:37:31;15.70;;;4.72;;
70899;SDS011;67902;52.154;5.430;2023-10-13T06:42:33;11.35;;;3.70;;
70899;SDS011;67902;52.154;5.430;2023-10-13T06:45:08;10.70;;;4.55;;
70899;SDS011;67902;52.154;5.430;2023-10-13T06:47:35;13.65;;;5.45;;
70899;SDS011;67902;52.154;5.430;2023-10-13T06:50:14;14.05;;;5.50;;
70899;SDS011;67902;52.154;5.430;2023-10-13T06:52:42;14.13;;;4.82;;
70899;SDS011;67902;52.154;5.430;2023-10-13T06:55:09;14.95;;;5.25;;
70899;SDS011;67902;52.154;5.430;2023-10-13T06:57:55;17.10;;;5.43;;
70899;SDS011;67902;52.154;5.430;2023-10-13T07:00:27;14.43;;;5.75;;
70899;SDS011;67902;52.154;5.430;2023-10-13T07:03:01;13.05;;;6.15;;
70899;SDS011;67902;52.154;5.430;2023-10-13T07:05:44;18.02;;;6.75;;
70899;SDS011;67902;52.154;5.430;2023-10-13T07:08:14;15.52;;;6.28;;
70899;SDS011;67902;52.154;5.430;2023-10-13T07:10:49;12.95;;;6.72;;
70899;SDS011;67902;52.154;5.430;2023-10-13T07:13:32;13.43;;;6.43;;
70899;SDS011;67902;52.154;5.430;2023-10-13T07:16:03;16.30;;;7.00;;
70899;SDS011;67902;52.154;5.430;2023-10-13T07:18:54;14.23;;;7.10;;
70899;SDS011;67902;52.154;5.430;2023-10-13T07:21:21;14.93;;;6.22;;
70899;SDS011;67902;52.154;5.430;2023-10-13T07:23:58;17.55;;;7.50;;
70899;SDS011;67902;52.154;5.430;2023-10-13T07:26:34;16.13;;;7.03;;
70899;SDS011;67902;52.154;5.430;2023-10-13T07:29:09;16.25;;;6.78;;
70899;SDS011;67902;52.154;5.430;2023-10-13T07:31:36;13.40;;;6.03;;
70899;SDS011;67902;52.154;5.430;2023-10-13T07:34:04;12.75;;;6.25;;
70899;SDS011;67902;52.154;5.430;2023-10-13T07:39:06;15.40;;;6.55;;
70899;SDS011;67902;52.154;5.430;2023-10-13T07:41:49;10.65;;;5.47;;
70899;SDS011;67902;52.154;5.430;2023-10-13T07:44:30;9.88;;;4.45;;
70899;SDS011;67902;52.154;5.430;2023-10-13T07:47:00;12.43;;;5.28;;
70899;SDS011;67902;52.154;5.430;2023-10-13T07:49:38;12.80;;;5.45;;
70899;SDS011;67902;52.154;5.430;2023-10-13T07:52:10;12.68;;;5.05;;
70899;SDS011;67902;52.154;5.430;2023-10-13T07:54:48;11.57;;;4.82;;
70899;SDS011;67902;52.154;5.430;2023-10-13T07:57:33;14.75;;;5.53;;
70899;SDS011;67902;52.154;5.430;2023-10-13T08:00:00;10.73;;;4.63;;
70899;SDS011;67902;52.154;5.430;2023-10-13T08:02:36;13.85;;;4.57;;
70899;SDS011;67902;52.154;5.430;2023-10-13T08:05:15;15.98;;;5.40;;
70899;SDS011;67902;52.154;5.430;2023-10-13T08:07:55;12.85;;;5.30;;
70899;SDS011;67902;52.154;5.430;2023-10-13T08:10:22;17.05;;;5.18;;
70899;SDS011;67902;52.154;5.430;2023-10-13T08:12:56;14.95;;;4.90;;
70899;SDS011;67902;52.154;5.430;2023-10-13T08:15:24;11.95;;;4.63;;
70899;SDS011;67902;52.154;5.430;2023-10-13T08:18:00;15.93;;;4.75;;
70899;SDS011;67902;52.154;5.430;2023-10-13T08:20:43;13.65;;;4.30;;
70899;SDS011;67902;52.154;5.430;2023-10-13T08:23:10;16.90;;;4.28;;
70899;SDS011;67902;52.154;5.430;2023-10-13T08:25:40;12.60;;;4.30;;
70899;SDS011;67902;52.154;5.430;2023-10-13T08:28:25;11.02;;;3.78;;
70899;SDS011;67902;52.154;5.430;2023-10-13T08:31:23;15.90;;;4.55;;
70899;SDS011;67902;52.154;5.430;2023-10-13T08:33:52;13.25;;;4.88;;
70899;SDS011;67902;52.154;5.430;2023-10-13T08:36:31;11.10;;;4.63;;
70899;SDS011;67902;52.154;5.430;2023-10-13T08:41:42;12.43;;;4.30;;
70899;SDS011;67902;52.154;5.430;2023-10-13T08:44:20;14.18;;;5.32;;
70899;SDS011;67902;52.154;5.430;2023-10-13T08:47:13;10.35;;;3.90;;
70899;SDS011;67902;52.154;5.430;2023-10-13T08:49:45;18.50;;;5.13;;
70899;SDS011;67902;52.154;5.430;2023-10-13T08:52:19;19.13;;;4.10;;
70899;SDS011;67902;52.154;5.430;2023-10-13T08:55:05;12.25;;;3.90;;
70899;SDS011;67902;52.154;5.430;2023-10-13T08:57:51;14.98;;;4.18;;
70899;SDS011;67902;52.154;5.430;2023-10-13T09:00:20;17.02;;;4.32;;
70899;SDS011;67902;52.154;5.430;2023-10-13T09:03:15;11.88;;;4.32;;
70899;SDS011;67902;52.154;5.430;2023-10-13T09:06:05;17.30;;;4.00;;
70899;SDS011;67902;52.154;5.430;2023-10-13T09:08:33;15.30;;;4.57;;
70899;SDS011;67902;52.154;5.430;2023-10-13T09:11:10;15.10;;;4.30;;
70899;SDS011;67902;52.154;5.430;2023-10-13T09:13:39;8.40;;;3.70;;
70899;SDS011;67902;52.154;5.430;2023-10-13T09:16:15;15.88;;;4.65;;
70899;SDS011;67902;52.154;5.430;2023-10-13T09:19:03;13.02;;;3.92;;
70899;SDS011;67902;52.154;5.430;2023-10-13T09:21:39;9.70;;;3.90;;
70899;SDS011;67902;52.154;5.430;2023-10-13T09:24:08;20.70;;;4.47;;
70899;SDS011;67902;52.154;5.430;2023-10-13T09:26:49;13.90;;;3.88;;
70899;SDS011;67902;52.154;5.430;2023-10-13T09:29:19;11.52;;;3.28;;
70899;SDS011;67902;52.154;5.430;2023-10-13T09:31:48;17.85;;;4.38;;
70899;SDS011;67902;52.154;5.430;2023-10-13T09:34:26;15.20;;;4.43;;
70899;SDS011;67902;52.154;5.430;2023-10-13T09:37:01;10.95;;;3.92;;
70899;SDS011;67902;52.154;5.430;2023-10-13T09:39:30;15.80;;;4.55;;
70899;SDS011;67902;52.154;5.430;2023-10-13T09:42:21;15.68;;;4.13;;
70899;SDS011;67902;52.154;5.430;2023-10-13T09:44:50;12.90;;;4.65;;
70899;SDS011;67902;52.154;5.430;2023-10-13T09:47:20;16.67;;;4.57;;
70899;SDS011;67902;52.154;5.430;2023-10-13T09:49:58;10.55;;;4.18;;
70899;SDS011;67902;52.154;5.430;2023-10-13T09:52:32;12.85;;;4.45;;
70899;SDS011;67902;52.154;5.430;2023-10-13T09:55:10;13.20;;;4.15;;
70899;SDS011;67902;52.154;5.430;2023-10-13T09:57:45;19.27;;;5.07;;
70899;SDS011;67902;52.154;5.430;2023-10-13T10:00:24;14.25;;;4.70;;
70899;SDS011;67902;52.154;5.430;2023-10-13T10:03:12;17.65;;;4.53;;
70899;SDS011;67902;52.154;5.430;2023-10-13T10:06:21;14.75;;;4.25;;
70899;SDS011;67902;52.154;5.430;2023-10-13T10:09:03;16.17;;;4.63;;
70899;SDS011;67902;52.154;5.430;2023-10-13T10:14:36;14.55;;;4.05;;
70899;SDS011;67902;52.154;5.430;2023-10-13T10:17:16;16.80;;;4.72;;
70899;SDS011;67902;52.154;5.430;2023-10-13T10:22:24;14.55;;;3.63;;
70899;SDS011;67902;52.154;5.430;2023-10-13T10:25:05;14.18;;;5.10;;
70899;SDS011;67902;52.154;5.430;2023-10-13T10:27:33;13.43;;;3.45;;
70899;SDS011;67902;52.154;5.430;2023-10-13T10:32:36;17.67;;;6.72;;
70899;SDS011;67902;52.154;5.430;2023-10-13T10:35:07;14.95;;;4.40;;
70899;SDS011;67902;52.154;5.430;2023-10-13T10:37:47;16.65;;;4.28;;
70899;SDS011;67902;52.154;5.430;2023-10-13T10:40:14;20.67;;;4.65;;
70899;SDS011;67902;52.154;5.430;2023-10-13T10:43:04;14.88;;;4.40;;
70899;SDS011;67902;52.154;5.430;2023-10-13T10:45:54;12.95;;;4.25;;
70899;SDS011;67902;52.154;5.430;2023-10-13T10:48:27;18.92;;;4.38;;
70899;SDS011;67902;52.154;5.430;2023-10-13T10:53:40;17.50;;;4.75;;
70899;SDS011;67902;52.154;5.430;2023-10-13T10:56:13;15.93;;;4.13;;
70899;SDS011;67902;52.154;5.430;2023-10-13T10:58:47;15.02;;;5.28;;
70899;SDS011;67902;52.154;5.430;2023-10-13T11:01:14;15.73;;;3.92;;
70899;SDS011;67902;52.154;5.430;2023-10-13T11:03:54;16.20;;;4.35;;
70899;SDS011;67902;52.154;5.430;2023-10-13T11:06:26;15.48;;;4.85;;
70899;SDS011;67902;52.154;5.430;2023-10-13T11:09:05;16.00;;;5.05;;
70899;SDS011;67902;52.154;5.430;2023-10-13T11:14:32;19.92;;;4.22;;
70899;SDS011;67902;52.154;5.430;2023-10-13T11:16:59;13.27;;;5.05;;
70899;SDS011;67902;52.154;5.430;2023-10-13T11:19:40;14.75;;;4.28;;
70899;SDS011;67902;52.154;5.430;2023-10-13T11:22:11;18.25;;;4.80;;
70899;SDS011;67902;52.154;5.430;2023-10-13T11:24:56;16.88;;;4.38;;
70899;SDS011;67902;52.154;5.430;2023-10-13T11:27:29;14.27;;;4.47;;
70899;SDS011;67902;52.154;5.430;2023-10-13T11:30:11;17.45;;;4.68;;
70899;SDS011;67902;52.154;5.430;2023-10-13T11:32:41;15.23;;;5.10;;
70899;SDS011;67902;52.154;5.430;2023-10-13T11:35:09;12.65;;;5.18;;
70899;SDS011;67902;52.154;5.430;2023-10-13T11:37:46;23.17;;;5.30;;
70899;SDS011;67902;52.154;5.430;2023-10-13T11:40:23;16.20;;;5.78;;
70899;SDS011;67902;52.154;5.430;2023-10-13T11:43:08;12.45;;;4.55;;
70899;SDS011;67902;52.154;5.430;2023-10-13T11:45:40;13.82;;;4.30;;
70899;SDS011;67902;52.154;5.430;2023-10-13T11:48:44;16.88;;;5.10;;
70899;SDS011;67902;52.154;5.430;2023-10-13T11:51:13;11.07;;;4.90;;
70899;SDS011;67902;52.154;5.430;2023-10-13T11:53:58;15.95;;;4.65;;
70899;SDS011;67902;52.154;5.430;2023-10-13T11:56:24;16.48;;;4.43;;
70899;SDS011;67902;52.154;5.430;2023-10-13T11:58:51;13.63;;;5.00;;
70899;SDS011;67902;52.154;5.430;2023-10-13T12:01:18;22.77;;;5.93;;
70899;SDS011;67902;52.154;5.430;2023-10-13T12:03:45;18.67;;;4.78;;
70899;SDS011;67902;52.154;5.430;2023-10-13T12:06:32;15.73;;;4.65;;
70899;SDS011;67902;52.154;5.430;2023-10-13T12:09:07;17.70;;;5.32;;
70899;SDS011;67902;52.154;5.430;2023-10-13T12:11:45;18.30;;;5.13;;
70899;SDS011;67902;52.154;5.430;2023-10-13T12:14:14;19.90;;;5.63;;
70899;SDS011;67902;52.154;5.430;2023-10-13T12:16:53;15.80;;;5.18;;
70899;SDS011;67902;52.154;5.430;2023-10-13T12:19:22;16.42;;;4.97;;
70899;SDS011;67902;52.154;5.430;2023-10-13T12:21:50;18.33;;;5.75;;
70899;SDS011;67902;52.154;5.430;2023-10-13T12:24:23;14.10;;;5.57;;
70899;SDS011;67902;52.154;5.430;2023-10-13T12:27:03;14.73;;;4.90;;
70899;SDS011;67902;52.154;5.430;2023-10-13T12:29:46;14.27;;;5.70;;
70899;SDS011;67902;52.154;5.430;2023-10-13T12:34:41;22.95;;;6.47;;
70899;SDS011;67902;52.154;5.430;2023-10-13T12:37:31;15.60;;;5.10;;
70899;SDS011;67902;52.154;5.430;2023-10-13T12:40:05;13.38;;;4.82;;
70899;SDS011;67902;52.154;5.430;2023-10-13T12:42:50;17.92;;;5.30;;
70899;SDS011;67902;52.154;5.430;2023-10-13T12:45:42;18.42;;;5.63;;
70899;SDS011;67902;52.154;5.430;2023-10-13T12:48:29;17.00;;;4.68;;
70899;SDS011;67902;52.154;5.430;2023-10-13T12:51:15;16.60;;;5.80;;
70899;SDS011;67902;52.154;5.430;2023-10-13T12:53:57;14.30;;;4.93;;
70899;SDS011;67902;52.154;5.430;2023-10-13T12:58:57;15.23;;;5.07;;
70899;SDS011;67902;52.154;5.430;2023-10-13T13:01:24;16.80;;;4.75;;
70899;SDS011;67902;52.154;5.430;2023-10-13T13:03:58;21.75;;;5.30;;
70899;SDS011;67902;52.154;5.430;2023-10-13T13:06:26;19.40;;;5.28;;
70899;SDS011;67902;52.154;5.430;2023-10-13T13:08:53;14.45;;;4.78;;
70899;SDS011;67902;52.154;5.430;2023-10-13T13:11:20;14.38;;;5.05;;
70899;SDS011;67902;52.154;5.430;2023-10-13T13:13:51;21.90;;;5.70;;
70899;SDS011;67902;52.154;5.430;2023-10-13T13:16:18;22.98;;;5.90;;
70899;SDS011;67902;52.154;5.430;2023-10-13T13:18:46;14.18;;;5.18;;
70899;SDS011;67902;52.154;5.430;2023-10-13T13:21:12;20.95;;;5.63;;
70899;SDS011;67902;52.154;5.430;2023-10-13T13:23:46;15.68;;;4.25;;
70899;SDS011;67902;52.154;5.430;2023-10-13T13:26:12;20.25;;;6.03;;
70899;SDS011;67902;52.154;5.430;2023-10-13T13:28:42;16.17;;;5.07;;
70899;SDS011;67902;52.154;5.430;2023-10-13T13:31:09;20.27;;;5.63;;
70899;SDS011;67902;52.154;5.430;2023-10-13T13:33:38;17.58;;;5.68;;
70899;SDS011;67902;52.154;5.430;2023-10-13T13:36:08;16.13;;;5.90;;
70899;SDS011;67902;52.154;5.430;2023-10-13T13:38:42;18.83;;;6.28;;
70899;SDS011;67902;52.154;5.430;2023-10-13T13:41:15;16.63;;;5.00;;
70899;SDS011;67902;52.154;5.430;2023-10-13T13:43:46;16.48;;;5.90;;
70899;SDS011;67902;52.154;5.430;2023-10-13T13:46:22;20.50;;;5.05;;
70899;SDS011;67902;52.154;5.430;2023-10-13T13:48:59;12.70;;;5.78;;
70899;SDS011;67902;52.154;5.430;2023-10-13T13:51:27;12.68;;;4.93;;
70899;SDS011;67902;52.154;5.430;2023-10-13T13:53:55;17.08;;;6.13;;
70899;SDS011;67902;52.154;5.430;2023-10-13T13:56:22;22.98;;;6.75;;
70899;SDS011;67902;52.154;5.430;2023-10-13T13:58:54;22.77;;;5.82;;
70899;SDS011;67902;52.154;5.430;2023-10-13T14:01:25;17.17;;;6.57;;
70899;SDS011;67902;52.154;5.430;2023-10-13T14:06:23;18.42;;;5.63;;
70899;SDS011;67902;52.154;5.430;2023-10-13T14:08:51;17.15;;;5.32;;
70899;SDS011;67902;52.154;5.430;2023-10-13T14:11:23;16.95;;;4.88;;
70899;SDS011;67902;52.154;5.430;2023-10-13T14:14:11;23.77;;;5.53;;
70899;SDS011;67902;52.154;5.430;2023-10-13T14:16:40;19.00;;;6.35;;
70899;SDS011;67902;52.154;5.430;2023-10-13T14:19:14;13.23;;;5.70;;
70899;SDS011;67902;52.154;5.430;2023-10-13T14:21:56;13.70;;;5.45;;
70899;SDS011;67902;52.154;5.430;2023-10-13T14:24:23;17.75;;;6.13;;
70899;SDS011;67902;52.154;5.430;2023-10-13T14:29:33;11.65;;;5.55;;
70899;SDS011;67902;52.154;5.430;2023-10-13T14:32:10;13.90;;;5.10;;
70899;SDS011;67902;52.154;5.430;2023-10-13T14:34:42;15.48;;;6.07;;
70899;SDS011;67902;52.154;5.430;2023-10-13T14:37:10;17.52;;;5.57;;
70899;SDS011;67902;52.154;5.430;2023-10-13T14:39:40;12.70;;;5.35;;
70899;SDS011;67902;52.154;5.430;2023-10-13T14:42:07;15.25;;;6.20;;
70899;SDS011;67902;52.154;5.430;2023-10-13T14:44:33;19.17;;;6.25;;
70899;SDS011;67902;52.154;5.430;2023-10-13T14:47:01;14.05;;;6.05;;
70899;SDS011;67902;52.154;5.430;2023-10-13T14:49:28;14.88;;;5.93;;
70899;SDS011;67902;52.154;5.430;2023-10-13T14:51:55;13.20;;;5.03;;
70899;SDS011;67902;52.154;5.430;2023-10-13T14:54:21;14.73;;;5.38;;
70899;SDS011;67902;52.154;5.430;2023-10-13T14:57:00;17.92;;;5.70;;
70899;SDS011;67902;52.154;5.430;2023-10-13T14:59:27;17.33;;;5.63;;
70899;SDS011;67902;52.154;5.430;2023-10-13T15:02:00;13.90;;;4.93;;
70899;SDS011;67902;52.154;5.430;2023-10-13T15:04:28;15.00;;;5.22;;
70899;SDS011;67902;52.154;5.430;2023-10-13T15:06:59;15.20;;;5.55;;
70899;SDS011;67902;52.154;5.430;2023-10-13T15:09:29;16.40;;;4.88;;
70899;SDS011;67902;52.154;5.430;2023-10-13T15:11:56;12.98;;;5.20;;
70899;SDS011;67902;52.154;5.430;2023-10-13T15:14:22;18.30;;;5.53;;
70899;SDS011;67902;52.154;5.430;2023-10-13T15:16:50;18.10;;;6.03;;
70899;SDS011;67902;52.154;5.430;2023-10-13T15:19:19;19.02;;;6.40;;
70899;SDS011;67902;52.154;5.430;2023-10-13T15:21:45;17.63;;;5.30;;
70899;SDS011;67902;52.154;5.430;2023-10-13T15:24:19;18.08;;;5.65;;
70899;SDS011;67902;52.154;5.430;2023-10-13T15:26:55;16.33;;;6.65;;
70899;SDS011;67902;52.154;5.430;2023-10-13T15:29:29;16.45;;;5.03;;
70899;SDS011;67902;52.154;5.430;2023-10-13T15:34:31;16.38;;;5.28;;
70899;SDS011;67902;52.154;5.430;2023-10-13T15:36:59;15.65;;;4.82;;
70899;SDS011;67902;52.154;5.430;2023-10-13T15:39:26;13.30;;;4.70;;
70899;SDS011;67902;52.154;5.430;2023-10-13T15:41:55;15.70;;;5.30;;
70899;SDS011;67902;52.154;5.430;2023-10-13T15:44:26;18.08;;;5.35;;
70899;SDS011;67902;52.154;5.430;2023-10-13T15:46:57;18.88;;;6.57;;
70899;SDS011;67902;52.154;5.430;2023-10-13T15:49:31;12.93;;;4.82;;
70899;SDS011;67902;52.154;5.430;2023-10-13T15:52:00;17.75;;;6.22;;
70899;SDS011;67902;52.154;5.430;2023-10-13T15:54:27;14.68;;;5.53;;
70899;SDS011;67902;52.154;5.430;2023-10-13T15:56:53;17.42;;;5.35;;
70899;SDS011;67902;52.154;5.430;2023-10-13T15:59:23;19.02;;;5.72;;
70899;SDS011;67902;52.154;5.430;2023-10-13T16:01:49;20.23;;;5.53;;
70899;SDS011;67902;52.154;5.430;2023-10-13T16:04:21;17.85;;;6.03;;
70899;SDS011;67902;52.154;5.430;2023-10-13T16:06:49;18.77;;;5.47;;
70899;SDS011;67902;52.154;5.430;2023-10-13T16:09:18;18.65;;;5.65;;
70899;SDS011;67902;52.154;5.430;2023-10-13T16:11:52;17.20;;;6.15;;
70899;SDS011;67902;52.154;5.430;2023-10-13T16:14:19;17.00;;;5.93;;
70899;SDS011;67902;52.154;5.430;2023-10-13T16:16:48;14.68;;;5.80;;
70899;SDS011;67902;52.154;5.430;2023-10-13T16:19:15;13.93;;;6.05;;
70899;SDS011;67902;52.154;5.430;2023-10-13T16:21:50;20.23;;;5.85;;